Meteo Giornale » Osservazioni meteo Svizzera » Bern-Belp

ore: 18:50 - Osservazioni Meteo Bern-Belp
Lat. 46° 55' N Lon. 7° 30' E Alt. 505 metri s.l.m.

sereno Europe/Zurich

20 °C

Sereno

Temp. 24 Ore

6 °C

23 °C

Nord

5.5 Km/h

Dew point 14 °C

Umidità 68 %

Visibilità  10 Km

Il sole sorge alle ore 07:16

Il sole tramonta alle ore 19:27

Data e Ora Cielo e Fenomeni T °C DP °C Um. % Pres. hPa Vis. km Vento km/h
Oggi h: 18:50 sereno Sereno 20 14 68 1020 10 N 5.5
Oggi h: 18:20 sereno Sereno 23 14 56 1020 10 N 3.7
Oggi h: 17:50 sereno Sereno 22 14 60 1020 10 O/NO 9.3
Oggi h: 17:20 sereno Sereno 21 14 64 1021 10 O/NO 11.1
Oggi h: 16:50 sereno Sereno 21 14 64 1021 10 NO 9.3
Oggi h: 16:20 sereno Sereno 21 14 64 1021 10 NO 9.3
Oggi h: 15:50 sereno Sereno 21 14 64 1021 10 O 13
Oggi h: 15:20 sereno Sereno 21 14 64 1021 10 O/NO 11.1
Oggi h: 14:50 sereno Sereno 19 13 68 1022 10 NO 7.4
Oggi h: 14:20 sereno Sereno 19 13 68 1022 10 N 5.5
Oggi h: 13:50 poco_nuvoloso Poco Nuvoloso 18 13 72 1023 10 O/NO 13
Oggi h: 13:20 poco_nuvoloso Poco Nuvoloso 17 12 72 1023 10 NO 7.4
Oggi h: 12:50 nuvoloso Nuvoloso 17 12 72 1023 10 O/NO 13
Oggi h: 12:20 molto_nuvoloso Molto Nuvoloso 16 11 72 1023 10 O 11.1
Oggi h: 11:50 coperto Coperto 15 11 76 1023 8 N 3.7
Oggi h: 11:20 molto_nuvoloso Molto Nuvoloso 15 11 76 1023 10 N 5.5
Oggi h: 10:50 molto_nuvoloso Molto Nuvoloso 14 12 87 1023 10 E/NE 7.4
Oggi h: 10:20 molto_nuvoloso Molto Nuvoloso 13 11 87 1023 8 E 9.3
Oggi h: 09:50 coperto Coperto 12 11 93 1023 8 SE 7.4
Oggi h: 09:20 coperto Coperto 10 10 100 1023 6 N 1.8
Oggi h: 08:50 foschia Foschia 10 10 100 1023 5 N 1.8
Oggi h: 08:20 foschia Foschia 9 9 100 1023 5 N 1.8
Oggi h: 07:50 foschia Foschia 9 9 100 1023 5 N 3.7
Oggi h: 07:20 foschia Foschia 8 8 100 1023 4 N 5.5
Oggi h: 06:50 coperto Coperto 8 8 100 1023 5 N 3.7
Oggi h: 05:50 nebbia Nebbia 6 6 100 1023 3 N 1.8
Oggi h: 05:20 nebbia Nebbia 6 5 93 1023 0.15 N 5.5
Oggi h: 04:50 nebbia Nebbia 6 5 93 1023 0.1 N 1.8
Oggi h: 04:20 nebbia NebbiaParziale 6 6 100 1023 0.9 N 1.8
Oggi h: 03:50 nebbia Nebbia 6 5 93 1024 0.5 N 1.8
Oggi h: 03:20 nebbia Nebbia 7 6 93 1024 2 N 1.8
Oggi h: 02:50 sereno Sereno 7 6 93 1024 8 N 3.7
Oggi h: 02:20 nebbia Nebbia 7 7 100 1024 3 N 1.8
Oggi h: 01:50 sereno Sereno 7 7 100 1024 10 N 1.8
Oggi h: 01:20 nebbia Nebbia 7 7 100 1024 3 N 0
Oggi h: 00:50 nebbia Nebbia 8 8 100 1024 7 N 0
Oggi h: 00:20 nebbia Nebbia 8 8 100 1024 5 N 1.8
Ieri h: 23:50 foschia Foschia 9 8 93 1023 5 N 1.8
Ieri h: 23:20 sereno Sereno 10 9 93 1023 10 N 1.8
Ieri h: 22:50 sereno Sereno 11 10 93 1024 10 N 1.8
Ieri h: 22:20 sereno Sereno 11 9 87 1024 10 N 1.8
Ieri h: 21:50 sereno Sereno 11 9 87 1024 10 N 1.8
Ieri h: 21:20 sereno Sereno 11 9 87 1024 10 N 3.7
Ieri h: 20:50 sereno Sereno 13 10 81 1024 10 N 3.7
Ieri h: 20:20 sereno Sereno 14 9 71 1024 10 N 3.7
Ieri h: 19:50 sereno Sereno 15 10 72 1024 10 N 3.7